Time;durP1;ratioP1;P1;durP2;ratioP2;P2;SDS_P1;SDS_P2;PMS_P1;PMS_P2;Temp;Humidity;BMP_temperature;BMP_pressure;BME280_temperature;BME280_humidity;BME280_pressure;Samples;Min_cycle;Max_cycle;Signal;HPM_P1;HPM_P2
2023/07/27 00:00:55;;;;;;;22.10;12.77;;;11.00;99.90;;;;;;5347306;23;658925;-70
2023/07/27 00:03:44;;;;;;;21.90;13.73;;;11.00;99.90;;;;;;5375895;23;659750;-69
2023/07/27 00:06:31;;;;;;;22.93;14.50;;;10.90;99.90;;;;;;5344243;23;659048;-70
2023/07/27 00:09:18;;;;;;;20.30;14.43;;;10.90;99.90;;;;;;5370934;23;659424;-70
2023/07/27 00:12:06;;;;;;;28.93;15.30;;;10.90;99.90;;;;;;5348204;23;658291;-69
2023/07/27 00:14:53;;;;;;;21.90;15.23;;;10.80;99.90;;;;;;5371112;23;659549;-70
2023/07/27 00:17:41;;;;;;;23.87;15.17;;;10.80;99.90;;;;;;5348282;23;658462;-70
2023/07/27 00:20:30;;;;;;;26.07;15.43;;;10.80;99.90;;;;;;5374580;23;659580;-70
2023/07/27 00:23:17;;;;;;;28.80;16.07;;;10.80;99.90;;;;;;5347661;23;658779;-70
2023/07/27 00:26:04;;;;;;;25.10;16.77;;;10.70;99.90;;;;;;5368708;23;658672;-70
2023/07/27 00:28:51;;;;;;;24.63;15.70;;;10.60;99.90;;;;;;5349095;23;658634;-70
2023/07/27 00:31:38;;;;;;;28.27;16.67;;;10.60;99.90;;;;;;5371601;23;659797;-70
2023/07/27 00:34:25;;;;;;;23.63;15.37;;;10.60;99.90;;;;;;5350263;23;658848;-70
2023/07/27 00:37:14;;;;;;;24.97;15.27;;;10.60;99.90;;;;;;5372899;23;660140;-70
2023/07/27 00:40:02;;;;;;;34.07;17.50;;;10.60;99.90;;;;;;5349724;23;658452;-70
2023/07/27 00:42:49;;;;;;;31.80;17.27;;;10.50;99.90;;;;;;5372233;23;658553;-70
2023/07/27 00:45:36;;;;;;;26.77;16.30;;;10.50;99.90;;;;;;5349711;23;658781;-70
2023/07/27 00:48:23;;;;;;;29.37;16.47;;;10.50;99.90;;;;;;5377593;23;659526;-70
2023/07/27 00:51:11;;;;;;;30.67;16.83;;;10.40;99.90;;;;;;5349981;23;658498;-70
2023/07/27 00:53:59;;;;;;;28.67;16.70;;;10.40;99.90;;;;;;5375049;23;658550;-70
2023/07/27 00:56:46;;;;;;;32.10;17.07;;;10.40;99.90;;;;;;5350182;23;659120;-70
2023/07/27 00:59:34;;;;;;;33.77;17.70;;;10.40;99.90;;;;;;5372501;23;659187;-70
2023/07/27 01:02:21;;;;;;;33.20;17.48;;;10.30;99.90;;;;;;5344900;23;658492;-70
2023/07/27 01:05:08;;;;;;;27.63;16.80;;;10.30;99.90;;;;;;5376317;23;659326;-70
2023/07/27 01:07:55;;;;;;;29.13;17.40;;;10.30;99.90;;;;;;5350081;23;658787;-70
2023/07/27 01:10:48;;;;;;;24.83;16.37;;;10.20;99.90;;;;;;5372018;23;660450;-70
2023/07/27 01:13:38;;;;;;;32.73;16.57;;;10.20;99.90;;;;;;5322176;23;659437;-70
2023/07/27 01:16:34;;;;;;;26.37;15.90;;;10.10;99.90;;;;;;5348484;23;658750;-71
2023/07/27 01:19:32;;;;;;;23.53;15.80;;;10.10;99.90;;;;;;5349363;23;658703;-70
2023/07/27 01:22:27;;;;;;;28.97;15.80;;;10.00;99.90;;;;;;5344797;23;659343;-71
2023/07/27 01:25:29;;;;;;;25.10;15.37;;;9.90;99.90;;;;;;5346757;23;659029;-70
2023/07/27 01:28:24;;;;;;;36.22;16.63;;;9.90;99.90;;;;;;5345675;23;657577;-71
2023/07/27 01:31:13;;;;;;;21.90;14.50;;;9.90;99.90;;;;;;5318366;23;658733;-70
2023/07/27 01:34:02;;;;;;;24.13;15.33;;;9.80;99.90;;;;;;5350682;23;657743;-70
2023/07/27 01:36:58;;;;;;;25.67;15.77;;;9.90;99.90;;;;;;5372561;23;658109;-70
2023/07/27 01:39:51;;;;;;;25.97;15.07;;;9.80;99.90;;;;;;5320816;23;658426;-70
2023/07/27 01:42:38;;;;;;;26.37;14.67;;;9.80;99.90;;;;;;5346274;23;657843;-71
2023/07/27 01:45:25;;;;;;;28.60;16.23;;;9.80;99.90;;;;;;5349670;23;658028;-70
2023/07/27 01:48:14;;;;;;;28.93;15.40;;;9.80;99.90;;;;;;5378003;23;657584;-70
2023/07/27 01:51:01;;;;;;;28.17;15.20;;;9.80;99.90;;;;;;5350031;23;657370;-71
2023/07/27 01:53:48;;;;;;;24.73;13.83;;;9.70;99.90;;;;;;5373198;23;658313;-70
2023/07/27 01:56:35;;;;;;;23.60;14.63;;;9.60;99.90;;;;;;5350218;23;657730;-70
2023/07/27 01:59:23;;;;;;;24.07;13.17;;;9.70;99.90;;;;;;5376729;23;657424;-70
2023/07/27 02:02:10;;;;;;;22.60;12.63;;;9.60;99.90;;;;;;5364867;23;657662;-70
2023/07/27 02:04:59;;;;;;;19.63;11.87;;;9.60;99.90;;;;;;5377655;23;658759;-70
2023/07/27 02:07:46;;;;;;;21.00;11.77;;;9.60;99.90;;;;;;5350284;23;657577;-71
2023/07/27 02:10:33;;;;;;;21.27;11.57;;;9.60;99.90;;;;;;5377118;23;658262;-70
2023/07/27 02:13:22;;;;;;;16.57;10.70;;;9.50;99.90;;;;;;5349516;23;658333;-70
2023/07/27 02:16:13;;;;;;;18.02;10.38;;;9.50;99.90;;;;;;5373862;23;658234;-71
2023/07/27 02:19:00;;;;;;;61.17;11.20;;;9.50;99.90;;;;;;5331244;23;657452;-70
2023/07/27 02:21:49;;;;;;;20.97;10.23;;;9.40;99.90;;;;;;5377922;23;658200;-71
2023/07/27 02:24:36;;;;;;;16.43;10.03;;;9.30;99.90;;;;;;5349580;23;657986;-70
2023/07/27 02:27:24;;;;;;;19.97;9.27;;;9.30;99.90;;;;;;5372703;23;658474;-70
2023/07/27 02:30:11;;;;;;;22.00;9.80;;;9.30;99.90;;;;;;5351818;23;656690;-71
2023/07/27 02:32:58;;;;;;;24.88;10.30;;;9.20;99.90;;;;;;5374081;23;657962;-71
2023/07/27 02:35:45;;;;;;;15.47;8.70;;;9.10;99.90;;;;;;5348560;23;657624;-70
2023/07/27 02:38:34;;;;;;;18.50;9.13;;;9.10;99.90;;;;;;5373839;23;658474;-70
2023/07/27 02:41:21;;;;;;;18.40;9.37;;;9.10;99.90;;;;;;5347182;23;656768;-71
2023/07/27 02:44:08;;;;;;;15.70;8.80;;;9.10;99.90;;;;;;5374428;23;656672;-70
2023/07/27 02:46:56;;;;;;;13.53;8.53;;;9.10;99.90;;;;;;5351998;23;656391;-70
2023/07/27 02:49:43;;;;;;;14.07;7.93;;;9.00;99.90;;;;;;5378263;23;657747;-70
2023/07/27 02:52:30;;;;;;;12.57;8.20;;;9.00;99.90;;;;;;5353250;23;656880;-71
2023/07/27 02:55:19;;;;;;;17.50;8.57;;;8.90;99.90;;;;;;5378193;23;657376;-71
2023/07/27 02:58:06;;;;;;;15.90;8.40;;;8.90;99.90;;;;;;5351370;23;656550;-71
2023/07/27 03:00:54;;;;;;;11.30;8.00;;;8.90;99.90;;;;;;5377010;23;657153;-70
2023/07/27 03:03:41;;;;;;;15.03;8.20;;;8.80;99.90;;;;;;5351630;23;657462;-71
2023/07/27 03:06:28;;;;;;;14.07;8.57;;;8.80;99.90;;;;;;5374726;23;657737;-71
2023/07/27 03:09:15;;;;;;;11.63;8.13;;;8.70;99.90;;;;;;5350517;23;656882;-70
2023/07/27 03:12:05;;;;;;;22.37;8.77;;;8.70;99.90;;;;;;5378236;23;657095;-70
2023/07/27 03:14:52;;;;;;;18.97;9.77;;;8.60;99.90;;;;;;5352781;23;657284;-71
2023/07/27 03:17:40;;;;;;;24.93;10.20;;;8.60;99.90;;;;;;5369572;23;656500;-70
2023/07/27 03:20:27;;;;;;;16.37;9.60;;;8.50;99.90;;;;;;5372496;23;658963;-70
2023/07/27 03:23:14;;;;;;;16.73;9.83;;;8.50;99.90;;;;;;5373998;23;656184;-71
2023/07/27 03:26:02;;;;;;;18.57;10.10;;;8.50;99.90;;;;;;5351732;23;657449;-71
2023/07/27 03:28:50;;;;;;;23.67;12.70;;;8.60;99.90;;;;;;5371621;23;657929;-70
2023/07/27 03:31:38;;;;;;;29.83;13.00;;;8.60;99.90;;;;;;5350161;23;658222;-70
2023/07/27 03:34:25;;;;;;;29.97;13.33;;;8.60;99.90;;;;;;5349819;23;657525;-71
2023/07/27 03:37:13;;;;;;;21.03;12.83;;;8.60;99.90;;;;;;5373040;23;658433;-71
2023/07/27 03:40:00;;;;;;;30.20;17.10;;;8.60;99.90;;;;;;5366415;23;657432;-70
2023/07/27 03:42:47;;;;;;;33.37;15.73;;;8.70;99.90;;;;;;5377293;23;658150;-71
2023/07/27 03:45:36;;;;;;;36.47;17.47;;;8.80;99.90;;;;;;5372541;23;658095;-70
2023/07/27 03:48:23;;;;;;;33.07;16.13;;;8.90;99.90;;;;;;5345124;23;658339;-70
2023/07/27 03:51:10;;;;;;;33.30;14.83;;;9.00;99.90;;;;;;5348125;23;658046;-71
2023/07/27 03:53:57;;;;;;;35.47;18.13;;;9.00;99.90;;;;;;5372643;23;658621;-70
2023/07/27 03:56:45;;;;;;;30.30;17.50;;;9.10;99.90;;;;;;5368211;23;657680;-70
2023/07/27 03:59:32;;;;;;;35.47;17.53;;;9.20;99.90;;;;;;5376873;23;658292;-70
2023/07/27 04:02:21;;;;;;;36.57;18.70;;;9.30;99.90;;;;;;5371418;23;657953;-70
2023/07/27 04:05:08;;;;;;;37.13;19.63;;;9.20;99.90;;;;;;5344004;23;658332;-70
2023/07/27 04:07:55;;;;;;;36.23;20.67;;;9.30;99.90;;;;;;5349712;23;657926;-70
2023/07/27 04:10:43;;;;;;;43.47;19.87;;;9.30;99.90;;;;;;5371453;23;657561;-70
2023/07/27 04:13:30;;;;;;;39.40;20.87;;;9.40;99.90;;;;;;5361129;23;658069;-70
2023/07/27 04:16:17;;;;;;;35.17;20.47;;;9.50;99.90;;;;;;5372763;23;658478;-70
2023/07/27 04:19:06;;;;;;;38.33;19.93;;;9.50;99.90;;;;;;5372080;23;657433;-70
2023/07/27 04:21:53;;;;;;;42.63;19.63;;;9.60;99.90;;;;;;5344503;23;658344;-70
2023/07/27 04:24:44;;;;;;;32.67;18.53;;;9.60;99.90;;;;;;5349582;23;657861;-70
2023/07/27 04:27:31;;;;;;;35.37;19.60;;;9.60;99.90;;;;;;5345131;23;657884;-70
2023/07/27 04:30:19;;;;;;;34.43;19.10;;;9.60;99.90;;;;;;5372125;23;658400;-70
2023/07/27 04:33:06;;;;;;;36.67;19.03;;;9.70;99.90;;;;;;5349367;23;657327;-70
2023/07/27 04:35:56;;;;;;;32.57;19.50;;;9.80;99.90;;;;;;5375069;23;658223;-70
2023/07/27 04:38:44;;;;;;;39.80;21.23;;;9.80;99.90;;;;;;5343467;23;658530;-70
2023/07/27 04:41:31;;;;;;;37.33;20.03;;;9.90;99.90;;;;;;5348846;23;657736;-70
2023/07/27 04:44:18;;;;;;;33.47;18.97;;;10.00;99.90;;;;;;5376562;23;658183;-70
2023/07/27 04:47:05;;;;;;;32.60;19.47;;;10.10;99.90;;;;;;5347486;23;658560;-70
2023/07/27 04:49:52;;;;;;;37.50;19.60;;;10.20;99.90;;;;;;5375735;23;659788;-70
2023/07/27 04:52:42;;;;;;;32.07;19.20;;;10.30;99.90;;;;;;5364685;23;658566;-70
2023/07/27 04:55:29;;;;;;;37.73;18.93;;;10.30;99.90;;;;;;5370089;23;659387;-70
2023/07/27 04:58:16;;;;;;;33.30;18.73;;;10.40;99.90;;;;;;5346845;23;658996;-70
2023/07/27 05:01:03;;;;;;;35.50;19.97;;;10.40;99.90;;;;;;5370491;23;659370;-70
2023/07/27 05:03:51;;;;;;;36.10;20.87;;;10.50;99.90;;;;;;5348087;23;658913;-70
2023/07/27 05:06:40;;;;;;;40.23;21.33;;;10.60;99.90;;;;;;5370804;23;659289;-70
2023/07/27 05:09:29;;;;;;;40.43;21.33;;;10.70;99.90;;;;;;5348125;23;660249;-70
2023/07/27 05:12:16;;;;;;;41.07;20.40;;;10.70;99.90;;;;;;5346023;23;658999;-70
2023/07/27 05:15:04;;;;;;;39.27;21.67;;;10.60;99.90;;;;;;5374340;23;659078;-70
2023/07/27 05:17:51;;;;;;;43.13;21.55;;;10.60;99.90;;;;;;5349616;23;658667;-70
2023/07/27 05:20:38;;;;;;;40.43;19.57;;;10.60;99.90;;;;;;5371155;23;659224;-70
2023/07/27 05:23:26;;;;;;;41.20;19.67;;;10.60;99.90;;;;;;5349875;23;659111;-70
2023/07/27 05:26:15;;;;;;;37.03;20.20;;;10.70;99.90;;;;;;5370583;23;659180;-70
2023/07/27 05:29:02;;;;;;;36.13;18.63;;;10.80;99.90;;;;;;5343618;23;661422;-70
2023/07/27 05:31:49;;;;;;;31.27;17.77;;;10.90;99.90;;;;;;5371649;23;658208;-70
2023/07/27 05:34:36;;;;;;;32.50;17.87;;;11.10;99.90;;;;;;5349212;23;658290;-69
2023/07/27 05:37:24;;;;;;;35.50;17.57;;;11.20;99.90;;;;;;5372131;23;659023;-70
2023/07/27 05:40:12;;;;;;;36.53;19.17;;;11.30;99.90;;;;;;5346445;23;659163;-70
2023/07/27 05:43:00;;;;;;;29.67;16.73;;;11.50;99.90;;;;;;5370365;23;659250;-70
2023/07/27 05:45:47;;;;;;;28.87;16.57;;;11.50;99.90;;;;;;5344127;23;659226;-70
2023/07/27 05:48:35;;;;;;;28.10;15.33;;;11.60;99.90;;;;;;5369400;23;659300;-70
2023/07/27 05:51:22;;;;;;;23.67;12.80;;;11.70;99.90;;;;;;5376209;23;658389;-70
2023/07/27 05:54:09;;;;;;;22.07;12.27;;;11.80;99.90;;;;;;5371786;23;658778;-69
2023/07/27 05:56:57;;;;;;;18.87;11.50;;;11.80;99.90;;;;;;5348028;23;659224;-70
2023/07/27 05:59:45;;;;;;;22.73;11.30;;;12.00;99.90;;;;;;5372650;23;658938;-71
2023/07/27 06:02:32;;;;;;;18.70;9.60;;;12.20;99.90;;;;;;5343912;23;659536;-70
2023/07/27 06:05:20;;;;;;;17.93;8.80;;;12.30;99.90;;;;;;5372550;23;657793;-70
2023/07/27 06:08:07;;;;;;;17.90;7.80;;;12.40;99.90;;;;;;5377185;23;658191;-69
2023/07/27 06:11:01;;;;;;;14.97;8.30;;;12.50;99.90;;;;;;5372152;23;657654;-70
2023/07/27 06:13:48;;;;;;;16.83;8.05;;;12.60;99.90;;;;;;5345626;23;658106;-69
2023/07/27 06:16:37;;;;;;;10.97;7.03;;;12.70;99.90;;;;;;5347323;23;657507;-71
2023/07/27 06:19:24;;;;;;;13.07;6.73;;;12.90;99.90;;;;;;5373234;23;658035;-70
2023/07/27 06:22:11;;;;;;;13.23;5.90;;;12.90;99.90;;;;;;5349803;23;657752;-70
2023/07/27 06:24:58;;;;;;;8.97;5.60;;;13.00;99.90;;;;;;5372953;23;658957;-70
2023/07/27 06:27:46;;;;;;;9.50;5.80;;;13.20;99.90;;;;;;5351630;23;656141;-70
2023/07/27 06:30:35;;;;;;;11.97;6.00;;;13.20;99.90;;;;;;5373928;23;656935;-70
2023/07/27 06:33:24;;;;;;;12.50;5.50;;;13.30;99.90;;;;;;5344009;23;658494;-70
2023/07/27 06:36:11;;;;;;;10.40;6.20;;;13.40;99.90;;;;;;5350477;23;657899;-70
2023/07/27 06:38:59;;;;;;;11.07;5.77;;;13.60;99.90;;;;;;5373696;23;657903;-70
2023/07/27 06:41:46;;;;;;;9.27;5.67;;;13.70;99.90;;;;;;5350005;23;657863;-70
2023/07/27 06:44:33;;;;;;;15.27;7.23;;;13.80;99.90;;;;;;5374755;23;657891;-71
2023/07/27 06:47:20;;;;;;;12.50;6.50;;;13.90;99.90;;;;;;5347159;23;657921;-70
2023/07/27 06:50:09;;;;;;;12.57;6.97;;;14.00;99.90;;;;;;5376123;23;658115;-70
2023/07/27 06:52:56;;;;;;;13.17;7.43;;;14.00;99.90;;;;;;5342354;23;658409;-70
2023/07/27 06:55:43;;;;;;;14.77;8.27;;;14.10;99.90;;;;;;5370685;23;657875;-70
2023/07/27 06:58:31;;;;;;;17.43;8.43;;;14.30;99.90;;;;;;5347478;23;657540;-70
2023/07/27 07:01:18;;;;;;;15.53;7.80;;;14.10;99.90;;;;;;5373796;23;657969;-71
2023/07/27 07:04:05;;;;;;;13.83;7.10;;;14.20;99.90;;;;;;5351728;23;657726;-70
2023/07/27 07:06:54;;;;;;;15.20;7.20;;;14.20;99.90;;;;;;5369906;23;658868;-70
2023/07/27 07:09:42;;;;;;;16.70;5.77;;;14.20;99.90;;;;;;5346959;23;658651;-70
2023/07/27 07:12:29;;;;;;;8.33;5.83;;;14.40;99.90;;;;;;5369991;23;657803;-71
2023/07/27 07:15:17;;;;;;;11.07;5.90;;;14.50;99.90;;;;;;5348846;23;657112;-70
2023/07/27 07:18:04;;;;;;;12.13;5.70;;;14.60;99.90;;;;;;5367463;23;658589;-70
2023/07/27 07:20:51;;;;;;;13.10;5.93;;;14.70;99.90;;;;;;5347416;23;657611;-71
2023/07/27 07:23:40;;;;;;;9.33;4.80;;;14.70;99.90;;;;;;5370362;23;659227;-71
2023/07/27 07:26:27;;;;;;;8.57;4.63;;;14.90;99.90;;;;;;5347443;23;657352;-70
2023/07/27 07:29:15;;;;;;;9.00;4.37;;;15.00;99.90;;;;;;5367193;23;656868;-71
2023/07/27 07:32:03;;;;;;;10.63;4.57;;;15.10;99.90;;;;;;5377208;23;657253;-70
2023/07/27 07:34:51;;;;;;;9.80;3.40;;;15.10;99.90;;;;;;5362789;23;657471;-70
2023/07/27 07:37:39;;;;;;;4.30;2.50;;;15.40;99.90;;;;;;5370685;23;656443;-70
2023/07/27 07:40:27;;;;;;;9.13;3.17;;;15.40;99.90;;;;;;5346712;23;656775;-71
2023/07/27 07:43:14;;;;;;;5.33;2.90;;;15.50;99.90;;;;;;5369175;23;656544;-71
2023/07/27 07:46:02;;;;;;;5.73;2.80;;;15.60;99.90;;;;;;5348426;23;656773;-71
2023/07/27 07:48:49;;;;;;;5.90;2.80;;;15.80;99.90;;;;;;5375799;23;656138;-71
2023/07/27 07:51:36;;;;;;;5.53;3.23;;;15.90;99.90;;;;;;5349433;23;657001;-71
2023/07/27 07:54:24;;;;;;;7.80;3.30;;;15.90;99.90;;;;;;5370934;23;657072;-70
2023/07/27 07:57:12;;;;;;;6.13;3.10;;;16.10;99.90;;;;;;5348500;23;656749;-71
2023/07/27 07:59:59;;;;;;;4.50;2.40;;;16.30;99.90;;;;;;5376406;23;657055;-71
2023/07/27 08:02:47;;;;;;;6.33;2.40;;;16.10;99.90;;;;;;5349427;23;656108;-71
2023/07/27 08:05:34;;;;;;;6.97;2.77;;;16.10;99.90;;;;;;5372088;23;656862;-71
2023/07/27 08:08:21;;;;;;;4.63;2.77;;;16.40;99.90;;;;;;5343482;23;656989;-71
2023/07/27 08:11:09;;;;;;;6.50;2.53;;;16.30;99.90;;;;;;5371041;23;656956;-71
2023/07/27 08:13:58;;;;;;;5.47;1.87;;;16.20;99.90;;;;;;5348509;23;656364;-70
2023/07/27 08:16:46;;;;;;;5.03;2.17;;;16.60;99.90;;;;;;5348641;23;656580;-71
2023/07/27 08:19:33;;;;;;;5.43;2.60;;;17.00;99.90;;;;;;5370578;23;657932;-71
2023/07/27 08:22:20;;;;;;;4.93;2.30;;;17.00;99.90;;;;;;5348198;23;656799;-71
2023/07/27 08:25:08;;;;;;;4.10;2.10;;;17.20;99.90;;;;;;5373465;23;657937;-70
2023/07/27 08:27:55;;;;;;;3.30;2.00;;;17.10;99.90;;;;;;5348213;23;657091;-71
2023/07/27 08:30:44;;;;;;;4.53;1.90;;;17.10;99.90;;;;;;5376219;23;656228;-70
2023/07/27 08:33:31;;;;;;;3.67;1.73;;;16.90;99.90;;;;;;5349543;23;657131;-71
2023/07/27 08:36:18;;;;;;;3.93;2.00;;;16.70;99.90;;;;;;5376062;23;657278;-72
2023/07/27 08:39:06;;;;;;;5.00;2.03;;;16.40;99.90;;;;;;5348903;23;657474;-71
2023/07/27 08:41:55;;;;;;;6.20;2.23;;;16.60;99.90;;;;;;5375468;23;656467;-70
2023/07/27 08:44:43;;;;;;;5.70;2.20;;;17.10;99.90;;;;;;5341394;23;658250;-71
2023/07/27 08:47:32;;;;;;;5.90;2.07;;;17.10;99.90;;;;;;5345455;23;656648;-69
2023/07/27 08:50:19;;;;;;;4.60;2.27;;;17.10;99.90;;;;;;5372049;23;656508;-71
2023/07/27 08:53:07;;;;;;;5.17;2.10;;;17.00;99.90;;;;;;5349661;23;656763;-69
2023/07/27 08:55:54;;;;;;;5.27;2.23;;;17.20;99.90;;;;;;5377999;23;656304;-71
2023/07/27 08:58:41;;;;;;;4.50;2.10;;;17.50;99.90;;;;;;5349218;23;656785;-71
2023/07/27 09:01:28;;;;;;;2.77;1.50;;;17.50;99.90;;;;;;5377155;23;656823;-71
2023/07/27 09:04:17;;;;;;;3.40;2.00;;;17.10;99.90;;;;;;5350440;23;656907;-71
2023/07/27 09:07:06;;;;;;;4.17;2.30;;;17.30;99.90;;;;;;5372020;23;657249;-71
2023/07/27 09:09:53;;;;;;;3.37;2.00;;;17.70;99.90;;;;;;5345409;23;657999;-70
2023/07/27 09:12:41;;;;;;;4.93;1.87;;;18.40;99.90;;;;;;5349681;23;657030;-70
2023/07/27 09:15:28;;;;;;;5.27;2.03;;;18.40;99.90;;;;;;5376757;23;657591;-70
2023/07/27 09:18:16;;;;;;;2.90;1.70;;;18.50;99.90;;;;;;5350205;23;657070;-70
2023/07/27 09:21:08;;;;;;;3.87;1.77;;;18.80;99.90;;;;;;5377924;23;657045;-69
2023/07/27 09:23:58;;;;;;;3.23;1.90;;;18.80;99.90;;;;;;5320018;23;657153;-71
2023/07/27 09:26:46;;;;;;;5.03;1.77;;;18.60;99.90;;;;;;5358266;23;656526;-71
2023/07/27 09:29:33;;;;;;;3.13;1.77;;;18.60;99.90;;;;;;5371949;23;657640;-71
2023/07/27 09:32:20;;;;;;;4.90;1.63;;;19.00;99.90;;;;;;5348000;23;656610;-71
2023/07/27 09:35:13;;;;;;;6.50;2.00;;;19.20;99.90;;;;;;5371869;23;657669;-71
2023/07/27 09:38:02;;;;;;;4.73;2.13;;;18.50;99.90;;;;;;5362846;23;656641;-71
2023/07/27 09:40:49;;;;;;;3.60;1.83;;;18.90;99.90;;;;;;5367974;23;657143;-70
2023/07/27 09:43:40;;;;;;;3.23;1.80;;;19.40;99.90;;;;;;5349123;23;656669;-70
2023/07/27 09:46:27;;;;;;;3.20;1.67;;;20.00;99.90;;;;;;5344508;23;658560;-70
2023/07/27 09:49:14;;;;;;;3.50;2.00;;;19.50;99.90;;;;;;5369940;23;656559;-71
2023/07/27 09:52:01;;;;;;;3.27;1.97;;;19.20;99.90;;;;;;5344451;23;657249;-70
2023/07/27 09:54:50;;;;;;;4.80;1.70;;;19.40;99.90;;;;;;5372203;23;657053;-70
2023/07/27 09:57:38;;;;;;;6.47;2.10;;;19.30;99.90;;;;;;5348751;23;657865;-70
2023/07/27 10:00:26;;;;;;;3.20;1.70;;;18.90;99.90;;;;;;5361627;23;656430;-71
2023/07/27 10:03:13;;;;;;;6.53;1.87;;;18.30;99.90;;;;;;5373111;23;657829;-70
2023/07/27 10:06:00;;;;;;;4.10;2.10;;;18.60;99.90;;;;;;5349959;23;656283;-70
2023/07/27 10:08:47;;;;;;;4.27;2.00;;;19.60;99.90;;;;;;5377167;23;656389;-69
2023/07/27 10:11:54;;;;;;;3.47;1.77;;;20.30;99.90;;;;;;5371091;23;656772;-70
2023/07/27 10:14:41;;;;;;;2.57;1.80;;;20.50;99.90;;;;;;5321957;23;656958;-70
2023/07/27 10:17:41;;;;;;;5.23;1.63;;;20.20;99.90;;;;;;5371400;23;657127;-70
2023/07/27 10:20:30;;;;;;;4.67;2.10;;;18.70;99.90;;;;;;5344676;23;657513;-70
2023/07/27 10:23:18;;;;;;;4.27;1.77;;;18.90;99.90;;;;;;5344439;23;657111;-70
2023/07/27 10:26:06;;;;;;;2.40;1.70;;;19.60;99.90;;;;;;5349930;23;656685;-70
2023/07/27 10:28:55;;;;;;;2.30;1.80;;;19.80;99.90;;;;;;5373058;23;657779;-69
2023/07/27 10:31:43;;;;;;;3.97;2.17;;;19.00;99.90;;;;;;5345767;23;658151;-71
2023/07/27 10:34:30;;;;;;;5.77;1.90;;;19.00;99.90;;;;;;5351410;23;656524;-71
2023/07/27 10:37:18;;;;;;;2.97;1.87;;;18.70;99.90;;;;;;5371586;23;657976;-70
2023/07/27 10:40:06;;;;;;;2.40;1.70;;;19.30;99.90;;;;;;5348666;23;657111;-70
2023/07/27 10:42:56;;;;;;;2.57;1.73;;;19.20;99.90;;;;;;5372260;23;656675;-70
2023/07/27 10:45:52;;;;;;;5.00;2.20;;;19.30;99.90;;;;;;5343578;23;657832;-70
2023/07/27 10:48:39;;;;;;;6.27;2.07;;;19.30;99.90;;;;;;5343133;23;656221;-70
2023/07/27 10:51:26;;;;;;;4.83;2.30;;;20.00;99.90;;;;;;5348999;23;656557;-70
2023/07/27 10:54:14;;;;;;;2.40;1.77;;;20.00;99.90;;;;;;5371796;23;657428;-71
2023/07/27 10:57:01;;;;;;;2.80;1.80;;;20.00;99.90;;;;;;5349370;23;656663;-70
2023/07/27 10:59:49;;;;;;;2.40;1.80;;;20.00;99.90;;;;;;5372470;23;658349;-71
2023/07/27 11:02:38;;;;;;;2.77;1.80;;;20.40;99.90;;;;;;5348835;23;656611;-71
2023/07/27 11:05:25;;;;;;;4.10;1.93;;;20.10;92.30;;;;;;5364075;23;656525;-71
2023/07/27 11:08:12;;;;;;;6.30;2.20;;;19.80;93.20;;;;;;5371213;23;657519;-71
2023/07/27 11:11:09;;;;;;;3.53;1.83;;;19.60;99.90;;;;;;5371522;23;656550;-72
2023/07/27 11:14:04;;;;;;;6.17;2.20;;;20.10;99.90;;;;;;5316391;23;657559;-71
2023/07/27 11:16:52;;;;;;;3.67;2.30;;;20.40;99.80;;;;;;5315719;23;657333;-72
2023/07/27 11:19:41;;;;;;;5.97;2.17;;;19.90;98.20;;;;;;5371239;23;656508;-72
2023/07/27 11:22:28;;;;;;;2.73;2.00;;;19.90;98.90;;;;;;5349096;23;656904;-72
2023/07/27 11:25:15;;;;;;;3.77;1.80;;;20.00;95.30;;;;;;5354560;23;656798;-72
2023/07/27 11:28:03;;;;;;;3.13;2.00;;;20.10;91.60;;;;;;5372130;23;657310;-71
2023/07/27 11:30:51;;;;;;;5.20;1.90;;;20.40;99.50;;;;;;5353477;23;657116;-71
2023/07/27 11:33:38;;;;;;;3.10;2.07;;;21.10;95.10;;;;;;5376719;23;657677;-71
2023/07/27 11:36:30;;;;;;;4.73;1.90;;;20.90;87.70;;;;;;5351576;23;656515;-71
2023/07/27 11:39:17;;;;;;;3.23;1.87;;;20.80;91.00;;;;;;5348932;23;657384;-71
2023/07/27 11:42:06;;;;;;;3.47;1.80;;;21.00;91.70;;;;;;5368170;23;657399;-71
2023/07/27 11:44:53;;;;;;;3.97;2.43;;;20.90;88.90;;;;;;5342468;23;657231;-70
2023/07/27 11:47:40;;;;;;;1.83;1.63;;;20.90;99.90;;;;;;5349122;23;657611;-70
2023/07/27 11:50:27;;;;;;;1.93;1.70;;;21.40;92.90;;;;;;5371181;23;657452;-71
2023/07/27 11:53:16;;;;;;;2.73;2.00;;;21.90;86.60;;;;;;5367515;23;656743;-71
2023/07/27 11:56:09;;;;;;;3.00;2.00;;;21.10;82.20;;;;;;5371534;23;657374;-70
2023/07/27 11:58:56;;;;;;;5.43;1.60;;;20.90;83.90;;;;;;5348941;23;656536;-70
2023/07/27 12:01:43;;;;;;;5.50;1.73;;;20.90;82.20;;;;;;5372257;23;657834;-70
2023/07/27 12:04:31;;;;;;;4.53;1.90;;;20.90;90.00;;;;;;5348751;23;657307;-70
2023/07/27 12:07:18;;;;;;;6.00;2.00;;;20.80;86.60;;;;;;5376862;23;657510;-71
2023/07/27 12:10:11;;;;;;;2.57;1.80;;;21.10;94.70;;;;;;5348958;23;656581;-70
2023/07/27 12:12:59;;;;;;;4.60;1.87;;;21.80;85.70;;;;;;5348098;23;656370;-70
2023/07/27 12:15:46;;;;;;;3.30;1.83;;;21.80;80.90;;;;;;5348366;23;656589;-70
2023/07/27 12:18:33;;;;;;;3.93;1.70;;;21.30;74.70;;;;;;5371218;23;656731;-71
2023/07/27 12:21:20;;;;;;;2.73;1.90;;;20.30;73.50;;;;;;5348167;23;656235;-71
2023/07/27 12:24:08;;;;;;;1.83;1.67;;;20.60;81.40;;;;;;5367742;23;658226;-71
2023/07/27 12:26:58;;;;;;;2.80;1.90;;;20.70;81.30;;;;;;5347999;23;657457;-71
2023/07/27 12:29:45;;;;;;;3.50;1.90;;;21.00;87.90;;;;;;5347733;23;657455;-70
2023/07/27 12:32:33;;;;;;;3.73;1.90;;;21.40;86.10;;;;;;5371187;23;657695;-70
2023/07/27 12:35:20;;;;;;;2.90;1.90;;;21.30;82.00;;;;;;5357806;23;657011;-71
2023/07/27 12:38:07;;;;;;;6.43;2.07;;;21.20;89.40;;;;;;5376466;23;656183;-70
2023/07/27 12:40:55;;;;;;;2.30;1.80;;;21.10;82.10;;;;;;5370199;23;656538;-71
2023/07/27 12:43:44;;;;;;;2.70;1.93;;;20.30;81.40;;;;;;5370366;23;657624;-70
2023/07/27 12:46:31;;;;;;;2.97;1.80;;;20.10;84.70;;;;;;5345346;23;656413;-70
2023/07/27 12:49:18;;;;;;;2.43;1.80;;;19.90;83.80;;;;;;5375294;23;656401;-69
2023/07/27 12:52:06;;;;;;;2.23;1.90;;;19.80;87.20;;;;;;5347490;23;656503;-70
2023/07/27 12:54:53;;;;;;;7.13;1.70;;;19.30;90.40;;;;;;5370519;23;656940;-69
2023/07/27 12:57:40;;;;;;;2.23;1.80;;;19.50;94.00;;;;;;5348644;23;656412;-70
2023/07/27 13:00:29;;;;;;;8.27;1.80;;;19.90;99.90;;;;;;5370689;23;657688;-69
2023/07/27 13:03:16;;;;;;;2.83;2.00;;;20.00;96.60;;;;;;5347942;23;656638;-68
2023/07/27 13:06:04;;;;;;;3.63;1.83;;;20.10;92.30;;;;;;5375655;23;658100;-69
2023/07/27 13:08:51;;;;;;;5.40;1.97;;;19.90;97.20;;;;;;5345664;23;656976;-68
2023/07/27 13:11:39;;;;;;;4.40;2.00;;;19.70;90.50;;;;;;5370983;23;656712;-68
2023/07/27 13:14:26;;;;;;;6.90;1.80;;;19.80;96.00;;;;;;5347285;23;657607;-69
2023/07/27 13:17:14;;;;;;;4.23;1.90;;;19.90;94.20;;;;;;5375457;23;657222;-69
2023/07/27 13:20:03;;;;;;;3.77;2.10;;;20.00;93.30;;;;;;5342631;23;657375;-69
2023/07/27 13:22:50;;;;;;;5.97;1.90;;;20.00;99.90;;;;;;5348238;23;656811;-70
2023/07/27 13:25:38;;;;;;;4.73;1.80;;;21.20;99.90;;;;;;5377024;23;657085;-70
2023/07/27 13:28:25;;;;;;;2.37;1.73;;;22.00;95.20;;;;;;5363684;23;656031;-70
2023/07/27 13:31:13;;;;;;;2.33;1.70;;;22.30;77.00;;;;;;5376283;23;656296;-68
2023/07/27 13:34:02;;;;;;;2.63;1.70;;;22.60;73.40;;;;;;5347216;23;656636;-69
2023/07/27 13:36:49;;;;;;;3.83;1.97;;;22.90;70.40;;;;;;5370671;23;656749;-68
2023/07/27 13:39:38;;;;;;;3.17;1.73;;;22.90;72.10;;;;;;5349819;23;657024;-70
2023/07/27 13:42:25;;;;;;;2.97;1.87;;;23.20;71.40;;;;;;5354306;23;656961;-71
2023/07/27 13:45:12;;;;;;;4.17;1.93;;;22.80;61.10;;;;;;5371155;23;657538;-68
2023/07/27 13:48:00;;;;;;;2.13;1.77;;;22.20;64.90;;;;;;5368080;23;656473;-70
2023/07/27 13:50:49;;;;;;;2.37;1.63;;;21.40;71.00;;;;;;5376519;23;656657;-68
2023/07/27 13:53:36;;;;;;;3.10;1.67;;;21.70;71.40;;;;;;5349148;23;656418;-68
2023/07/27 13:56:23;;;;;;;3.23;1.80;;;22.00;70.00;;;;;;5372710;23;658319;-68
2023/07/27 13:59:11;;;;;;;3.83;1.90;;;21.50;65.00;;;;;;5349912;23;656732;-69
2023/07/27 14:01:59;;;;;;;2.77;1.40;;;21.80;65.70;;;;;;5378114;23;657596;-69
2023/07/27 14:04:46;;;;;;;3.20;1.47;;;22.20;72.30;;;;;;5345832;23;656477;-69
2023/07/27 14:07:35;;;;;;;2.90;1.60;;;21.90;65.80;;;;;;5377626;23;657502;-69
2023/07/27 14:10:22;;;;;;;5.20;1.80;;;22.10;66.30;;;;;;5343395;23;658456;-70
2023/07/27 14:13:09;;;;;;;4.00;2.00;;;22.40;62.70;;;;;;5370855;23;656936;-71
2023/07/27 14:15:56;;;;;;;1.93;1.67;;;22.50;65.80;;;;;;5348724;23;656539;-70